sensor_id;sensor_type;location;lat;lon;timestamp;pressure;altitude;pressure_sealevel;temperature;humidity
54042;BME280;41156;51.508;5.406;2022-11-20T00:00:12;101198.44;;;-1.54;100.00
54042;BME280;41156;51.508;5.406;2022-11-20T00:03:13;101198.81;;;-1.58;100.00
54042;BME280;41156;51.508;5.406;2022-11-20T00:06:18;101203.66;;;-1.63;100.00
54042;BME280;41156;51.508;5.406;2022-11-20T00:09:18;101197.53;;;-1.64;100.00
54042;BME280;41156;51.508;5.406;2022-11-20T00:12:19;101203.94;;;-1.66;100.00
54042;BME280;41156;51.508;5.406;2022-11-20T00:15:19;101193.72;;;-1.71;100.00
54042;BME280;41156;51.508;5.406;2022-11-20T00:18:19;101193.13;;;-1.75;100.00
54042;BME280;41156;51.508;5.406;2022-11-20T00:21:24;101198.91;;;-1.81;100.00
54042;BME280;41156;51.508;5.406;2022-11-20T00:24:25;101201.69;;;-1.82;100.00
54042;BME280;41156;51.508;5.406;2022-11-20T00:27:25;101200.13;;;-1.85;100.00
54042;BME280;41156;51.508;5.406;2022-11-20T00:30:25;101194.22;;;-1.89;100.00
54042;BME280;41156;51.508;5.406;2022-11-20T00:33:26;101194.59;;;-1.93;100.00
54042;BME280;41156;51.508;5.406;2022-11-20T00:36:28;101192.09;;;-1.95;100.00
54042;BME280;41156;51.508;5.406;2022-11-20T00:39:31;101201.00;;;-1.96;100.00
54042;BME280;41156;51.508;5.406;2022-11-20T00:42:31;101200.31;;;-1.98;100.00
54042;BME280;41156;51.508;5.406;2022-11-20T00:45:32;101198.72;;;-2.00;100.00
54042;BME280;41156;51.508;5.406;2022-11-20T00:48:33;101183.66;;;-2.00;100.00
54042;BME280;41156;51.508;5.406;2022-11-20T00:51:33;101184.78;;;-2.02;100.00
54042;BME280;41156;51.508;5.406;2022-11-20T00:54:33;101194.53;;;-2.03;100.00
54042;BME280;41156;51.508;5.406;2022-11-20T00:57:34;101193.66;;;-2.03;100.00
54042;BME280;41156;51.508;5.406;2022-11-20T01:00:34;101190.31;;;-2.06;100.00
54042;BME280;41156;51.508;5.406;2022-11-20T01:03:36;101188.50;;;-2.05;100.00
54042;BME280;41156;51.508;5.406;2022-11-20T01:06:38;101183.47;;;-2.08;100.00
54042;BME280;41156;51.508;5.406;2022-11-20T01:09:39;101188.03;;;-2.10;100.00
54042;BME280;41156;51.508;5.406;2022-11-20T01:12:39;101182.84;;;-2.12;100.00
54042;BME280;41156;51.508;5.406;2022-11-20T01:15:39;101182.97;;;-2.13;100.00
54042;BME280;41156;51.508;5.406;2022-11-20T01:18:43;101186.59;;;-2.14;100.00
54042;BME280;41156;51.508;5.406;2022-11-20T01:21:45;101187.94;;;-2.20;100.00
54042;BME280;41156;51.508;5.406;2022-11-20T01:24:45;101189.97;;;-2.24;100.00
54042;BME280;41156;51.508;5.406;2022-11-20T01:27:46;101197.09;;;-2.24;100.00
54042;BME280;41156;51.508;5.406;2022-11-20T01:30:46;101194.56;;;-2.26;100.00
54042;BME280;41156;51.508;5.406;2022-11-20T01:33:48;101191.78;;;-2.24;100.00
54042;BME280;41156;51.508;5.406;2022-11-20T01:36:49;101180.50;;;-2.26;100.00
54042;BME280;41156;51.508;5.406;2022-11-20T01:39:49;101180.63;;;-2.28;100.00
54042;BME280;41156;51.508;5.406;2022-11-20T01:43:06;101183.50;;;-2.31;100.00
54042;BME280;41156;51.508;5.406;2022-11-20T01:46:22;101180.97;;;-2.32;100.00
54042;BME280;41156;51.508;5.406;2022-11-20T01:49:37;101184.97;;;-2.38;100.00
54042;BME280;41156;51.508;5.406;2022-11-20T01:52:44;101184.00;;;-2.37;100.00
54042;BME280;41156;51.508;5.406;2022-11-20T01:55:49;101184.09;;;-2.38;100.00
54042;BME280;41156;51.508;5.406;2022-11-20T01:58:54;101190.16;;;-2.36;100.00
54042;BME280;41156;51.508;5.406;2022-11-20T02:01:55;101189.03;;;-2.34;100.00
54042;BME280;41156;51.508;5.406;2022-11-20T02:05:02;101179.16;;;-2.32;100.00
54042;BME280;41156;51.508;5.406;2022-11-20T02:08:06;101172.22;;;-2.33;100.00
54042;BME280;41156;51.508;5.406;2022-11-20T02:11:06;101180.16;;;-2.33;100.00
54042;BME280;41156;51.508;5.406;2022-11-20T02:14:07;101177.03;;;-2.38;100.00
54042;BME280;41156;51.508;5.406;2022-11-20T02:17:08;101177.03;;;-2.38;100.00
54042;BME280;41156;51.508;5.406;2022-11-20T02:20:09;101178.94;;;-2.40;100.00
54042;BME280;41156;51.508;5.406;2022-11-20T02:23:18;101171.00;;;-2.40;100.00
54042;BME280;41156;51.508;5.406;2022-11-20T02:26:22;101167.41;;;-2.39;100.00
54042;BME280;41156;51.508;5.406;2022-11-20T02:29:31;101165.69;;;-2.40;100.00
54042;BME280;41156;51.508;5.406;2022-11-20T02:32:35;101157.06;;;-2.42;100.00
54042;BME280;41156;51.508;5.406;2022-11-20T02:38:36;101162.69;;;-2.35;100.00
54042;BME280;41156;51.508;5.406;2022-11-20T02:41:36;101166.91;;;-2.33;100.00
54042;BME280;41156;51.508;5.406;2022-11-20T02:44:37;101159.81;;;-2.32;100.00
54042;BME280;41156;51.508;5.406;2022-11-20T02:47:37;101168.34;;;-2.29;100.00
54042;BME280;41156;51.508;5.406;2022-11-20T02:50:38;101167.72;;;-2.21;100.00
54042;BME280;41156;51.508;5.406;2022-11-20T02:53:40;101165.91;;;-2.09;100.00
54042;BME280;41156;51.508;5.406;2022-11-20T02:56:40;101158.03;;;-1.99;100.00
54042;BME280;41156;51.508;5.406;2022-11-20T02:59:40;101158.97;;;-1.89;100.00
54042;BME280;41156;51.508;5.406;2022-11-20T03:02:40;101158.34;;;-1.81;100.00
54042;BME280;41156;51.508;5.406;2022-11-20T03:05:41;101157.00;;;-1.76;100.00
54042;BME280;41156;51.508;5.406;2022-11-20T03:08:41;101158.28;;;-1.70;100.00
54042;BME280;41156;51.508;5.406;2022-11-20T03:11:41;101157.91;;;-1.65;100.00
54042;BME280;41156;51.508;5.406;2022-11-20T03:14:42;101154.16;;;-1.63;100.00
54042;BME280;41156;51.508;5.406;2022-11-20T03:17:42;101154.88;;;-1.61;100.00
54042;BME280;41156;51.508;5.406;2022-11-20T03:20:42;101151.97;;;-1.58;100.00
54042;BME280;41156;51.508;5.406;2022-11-20T03:23:43;101152.69;;;-1.56;100.00
54042;BME280;41156;51.508;5.406;2022-11-20T03:26:43;101149.78;;;-1.53;100.00
54042;BME280;41156;51.508;5.406;2022-11-20T03:29:43;101146.13;;;-1.52;100.00
54042;BME280;41156;51.508;5.406;2022-11-20T03:32:43;101146.00;;;-1.50;100.00
54042;BME280;41156;51.508;5.406;2022-11-20T03:35:44;101137.94;;;-1.49;100.00
54042;BME280;41156;51.508;5.406;2022-11-20T03:38:44;101131.69;;;-1.47;100.00
54042;BME280;41156;51.508;5.406;2022-11-20T03:41:44;101136.16;;;-1.48;100.00
54042;BME280;41156;51.508;5.406;2022-11-20T03:44:45;101126.63;;;-1.51;100.00
54042;BME280;41156;51.508;5.406;2022-11-20T03:47:46;101126.63;;;-1.51;100.00
54042;BME280;41156;51.508;5.406;2022-11-20T03:50:46;101124.09;;;-1.52;100.00
54042;BME280;41156;51.508;5.406;2022-11-20T03:53:51;101119.91;;;-1.55;100.00
54042;BME280;41156;51.508;5.406;2022-11-20T03:56:53;101119.06;;;-1.55;100.00
54042;BME280;41156;51.508;5.406;2022-11-20T03:59:53;101112.22;;;-1.58;100.00
54042;BME280;41156;51.508;5.406;2022-11-20T04:02:58;101103.56;;;-1.60;100.00
54042;BME280;41156;51.508;5.406;2022-11-20T04:06:07;101109.00;;;-1.61;100.00
54042;BME280;41156;51.508;5.406;2022-11-20T04:09:07;101103.25;;;-1.66;100.00
54042;BME280;41156;51.508;5.406;2022-11-20T04:12:08;101111.69;;;-1.73;100.00
54042;BME280;41156;51.508;5.406;2022-11-20T04:15:08;101117.38;;;-1.77;100.00
54042;BME280;41156;51.508;5.406;2022-11-20T04:18:09;101107.03;;;-1.80;100.00
54042;BME280;41156;51.508;5.406;2022-11-20T04:21:09;101117.63;;;-1.80;100.00
54042;BME280;41156;51.508;5.406;2022-11-20T04:24:10;101115.81;;;-1.80;100.00
54042;BME280;41156;51.508;5.406;2022-11-20T04:27:10;101112.44;;;-1.82;100.00
54042;BME280;41156;51.508;5.406;2022-11-20T04:30:11;101108.13;;;-1.83;100.00
54042;BME280;41156;51.508;5.406;2022-11-20T04:33:11;101103.22;;;-1.88;100.00
54042;BME280;41156;51.508;5.406;2022-11-20T04:36:14;101103.47;;;-1.91;100.00
54042;BME280;41156;51.508;5.406;2022-11-20T04:39:15;101097.47;;;-1.93;100.00
54042;BME280;41156;51.508;5.406;2022-11-20T04:42:16;101096.47;;;-1.92;100.00
54042;BME280;41156;51.508;5.406;2022-11-20T04:45:29;101097.47;;;-1.93;100.00
54042;BME280;41156;51.508;5.406;2022-11-20T04:48:29;101095.78;;;-1.94;100.00
54042;BME280;41156;51.508;5.406;2022-11-20T04:51:30;101090.59;;;-1.95;100.00
54042;BME280;41156;51.508;5.406;2022-11-20T04:54:30;101086.41;;;-1.98;100.00
54042;BME280;41156;51.508;5.406;2022-11-20T04:57:31;101099.91;;;-2.01;100.00
54042;BME280;41156;51.508;5.406;2022-11-20T05:00:31;101092.91;;;-2.02;100.00
54042;BME280;41156;51.508;5.406;2022-11-20T05:03:31;101087.50;;;-2.00;100.00
54042;BME280;41156;51.508;5.406;2022-11-20T05:06:32;101084.25;;;-2.04;100.00
54042;BME280;41156;51.508;5.406;2022-11-20T05:09:32;101081.63;;;-2.04;100.00
54042;BME280;41156;51.508;5.406;2022-11-20T05:12:32;101085.94;;;-2.03;100.00
54042;BME280;41156;51.508;5.406;2022-11-20T05:15:32;101074.38;;;-2.02;100.00
54042;BME280;41156;51.508;5.406;2022-11-20T05:18:34;101071.59;;;-2.00;100.00
54042;BME280;41156;51.508;5.406;2022-11-20T05:21:34;101073.41;;;-2.01;100.00
54042;BME280;41156;51.508;5.406;2022-11-20T05:24:35;101067.88;;;-1.98;100.00
54042;BME280;41156;51.508;5.406;2022-11-20T05:27:35;101068.56;;;-1.96;100.00
54042;BME280;41156;51.508;5.406;2022-11-20T05:30:35;101066.50;;;-1.92;100.00
54042;BME280;41156;51.508;5.406;2022-11-20T05:33:36;101063.88;;;-1.92;100.00
54042;BME280;41156;51.508;5.406;2022-11-20T05:36:36;101061.78;;;-1.89;100.00
54042;BME280;41156;51.508;5.406;2022-11-20T05:39:37;101059.59;;;-1.83;100.00
54042;BME280;41156;51.508;5.406;2022-11-20T05:42:37;101066.47;;;-1.81;100.00
54042;BME280;41156;51.508;5.406;2022-11-20T05:45:37;101067.03;;;-1.77;100.00
54042;BME280;41156;51.508;5.406;2022-11-20T05:48:41;101081.72;;;-1.73;100.00
54042;BME280;41156;51.508;5.406;2022-11-20T05:51:42;101075.19;;;-1.69;100.00
54042;BME280;41156;51.508;5.406;2022-11-20T05:54:42;101080.09;;;-1.64;100.00
54042;BME280;41156;51.508;5.406;2022-11-20T05:57:42;101086.94;;;-1.62;100.00
54042;BME280;41156;51.508;5.406;2022-11-20T06:00:43;101088.38;;;-1.58;100.00
54042;BME280;41156;51.508;5.406;2022-11-20T06:03:43;101091.47;;;-1.53;100.00
54042;BME280;41156;51.508;5.406;2022-11-20T06:06:46;101092.31;;;-1.52;100.00
54042;BME280;41156;51.508;5.406;2022-11-20T06:09:46;101096.38;;;-1.48;100.00
54042;BME280;41156;51.508;5.406;2022-11-20T06:12:46;101097.78;;;-1.44;100.00
54042;BME280;41156;51.508;5.406;2022-11-20T06:15:50;101092.94;;;-1.39;100.00
54042;BME280;41156;51.508;5.406;2022-11-20T06:18:50;101094.38;;;-1.35;100.00
54042;BME280;41156;51.508;5.406;2022-11-20T06:21:51;101085.88;;;-1.28;100.00
54042;BME280;41156;51.508;5.406;2022-11-20T06:24:51;101085.47;;;-1.24;100.00
54042;BME280;41156;51.508;5.406;2022-11-20T06:27:51;101088.69;;;-1.20;100.00
54042;BME280;41156;51.508;5.406;2022-11-20T06:30:52;101093.31;;;-1.22;100.00
54042;BME280;41156;51.508;5.406;2022-11-20T06:33:52;101086.91;;;-1.20;100.00
54042;BME280;41156;51.508;5.406;2022-11-20T06:36:53;101089.16;;;-1.15;100.00
54042;BME280;41156;51.508;5.406;2022-11-20T06:39:53;101084.56;;;-1.13;100.00
54042;BME280;41156;51.508;5.406;2022-11-20T06:42:54;101079.13;;;-1.12;100.00
54042;BME280;41156;51.508;5.406;2022-11-20T06:45:55;101072.97;;;-1.12;100.00
54042;BME280;41156;51.508;5.406;2022-11-20T06:48:56;101070.19;;;-1.10;100.00
54042;BME280;41156;51.508;5.406;2022-11-20T06:51:56;101069.94;;;-1.07;100.00
54042;BME280;41156;51.508;5.406;2022-11-20T06:54:57;101067.28;;;-1.07;100.00
54042;BME280;41156;51.508;5.406;2022-11-20T06:57:57;101065.44;;;-1.07;100.00
54042;BME280;41156;51.508;5.406;2022-11-20T07:01:02;101072.56;;;-1.07;100.00
54042;BME280;41156;51.508;5.406;2022-11-20T07:04:03;101068.97;;;-1.06;100.00
54042;BME280;41156;51.508;5.406;2022-11-20T07:07:03;101074.97;;;-1.04;100.00
54042;BME280;41156;51.508;5.406;2022-11-20T07:10:04;101079.16;;;-1.02;100.00
54042;BME280;41156;51.508;5.406;2022-11-20T07:13:04;101071.06;;;-1.00;100.00
54042;BME280;41156;51.508;5.406;2022-11-20T07:16:06;101066.63;;;-1.00;100.00
54042;BME280;41156;51.508;5.406;2022-11-20T07:19:07;101063.66;;;-0.97;100.00
54042;BME280;41156;51.508;5.406;2022-11-20T07:22:07;101062.72;;;-0.96;100.00
54042;BME280;41156;51.508;5.406;2022-11-20T07:25:08;101060.88;;;-0.95;100.00
54042;BME280;41156;51.508;5.406;2022-11-20T07:28:09;101061.47;;;-0.91;100.00
54042;BME280;41156;51.508;5.406;2022-11-20T07:31:10;101057.72;;;-0.89;100.00
54042;BME280;41156;51.508;5.406;2022-11-20T07:34:12;101056.47;;;-0.85;100.00
54042;BME280;41156;51.508;5.406;2022-11-20T07:37:12;101052.00;;;-0.84;100.00
54042;BME280;41156;51.508;5.406;2022-11-20T07:40:13;101045.44;;;-0.80;100.00
54042;BME280;41156;51.508;5.406;2022-11-20T07:43:13;101047.69;;;-0.76;100.00
54042;BME280;41156;51.508;5.406;2022-11-20T07:46:13;101048.38;;;-0.73;100.00
54042;BME280;41156;51.508;5.406;2022-11-20T07:49:14;101048.97;;;-0.70;100.00
54042;BME280;41156;51.508;5.406;2022-11-20T07:52:14;101052.06;;;-0.65;100.00
54042;BME280;41156;51.508;5.406;2022-11-20T07:55:15;101057.66;;;-0.58;100.00
54042;BME280;41156;51.508;5.406;2022-11-20T07:58:15;101057.09;;;-0.52;100.00
54042;BME280;41156;51.508;5.406;2022-11-20T08:01:15;101049.41;;;-0.45;100.00
54042;BME280;41156;51.508;5.406;2022-11-20T08:04:15;101062.84;;;-0.37;100.00
54042;BME280;41156;51.508;5.406;2022-11-20T08:07:19;101055.88;;;-0.28;100.00
54042;BME280;41156;51.508;5.406;2022-11-20T08:10:22;101057.13;;;-0.23;100.00
54042;BME280;41156;51.508;5.406;2022-11-20T08:13:22;101055.59;;;-0.15;100.00
54042;BME280;41156;51.508;5.406;2022-11-20T08:16:43;101053.22;;;-0.09;100.00
54042;BME280;41156;51.508;5.406;2022-11-20T08:19:44;101056.28;;;-0.04;100.00
54042;BME280;41156;51.508;5.406;2022-11-20T08:22:44;101053.34;;;-0.01;100.00
54042;BME280;41156;51.508;5.406;2022-11-20T08:25:49;101058.94;;;0.06;100.00
54042;BME280;41156;51.508;5.406;2022-11-20T08:28:52;101054.16;;;0.10;100.00
54042;BME280;41156;51.508;5.406;2022-11-20T08:31:52;101054.75;;;0.13;100.00
54042;BME280;41156;51.508;5.406;2022-11-20T08:34:53;101052.38;;;0.20;100.00
54042;BME280;41156;51.508;5.406;2022-11-20T08:37:53;101059.19;;;0.32;100.00
54042;BME280;41156;51.508;5.406;2022-11-20T08:41:01;101052.03;;;0.43;100.00
54042;BME280;41156;51.508;5.406;2022-11-20T08:44:20;101052.16;;;0.51;100.00
54042;BME280;41156;51.508;5.406;2022-11-20T08:47:21;101054.94;;;0.59;100.00
54042;BME280;41156;51.508;5.406;2022-11-20T08:50:21;101047.91;;;0.68;100.00
54042;BME280;41156;51.508;5.406;2022-11-20T08:53:21;101051.34;;;0.78;100.00
54042;BME280;41156;51.508;5.406;2022-11-20T08:56:21;101052.31;;;0.87;100.00
54042;BME280;41156;51.508;5.406;2022-11-20T08:59:22;101048.91;;;0.95;100.00
54042;BME280;41156;51.508;5.406;2022-11-20T09:02:22;101045.81;;;0.99;100.00
54042;BME280;41156;51.508;5.406;2022-11-20T09:05:22;101045.91;;;1.07;100.00
54042;BME280;41156;51.508;5.406;2022-11-20T09:08:23;101051.63;;;1.13;100.00
54042;BME280;41156;51.508;5.406;2022-11-20T09:11:24;101045.72;;;1.19;100.00
54042;BME280;41156;51.508;5.406;2022-11-20T09:14:24;101036.44;;;1.23;100.00
54042;BME280;41156;51.508;5.406;2022-11-20T09:17:29;101034.88;;;1.30;100.00
54042;BME280;41156;51.508;5.406;2022-11-20T09:20:31;101025.59;;;1.34;100.00
54042;BME280;41156;51.508;5.406;2022-11-20T09:23:33;101029.47;;;1.40;100.00
54042;BME280;41156;51.508;5.406;2022-11-20T09:26:34;101026.66;;;1.41;100.00
54042;BME280;41156;51.508;5.406;2022-11-20T09:29:34;101015.72;;;1.44;100.00
54042;BME280;41156;51.508;5.406;2022-11-20T09:32:35;101016.09;;;1.50;100.00
54042;BME280;41156;51.508;5.406;2022-11-20T09:35:35;101015.50;;;1.56;100.00
54042;BME280;41156;51.508;5.406;2022-11-20T09:38:37;100999.22;;;1.59;100.00
54042;BME280;41156;51.508;5.406;2022-11-20T09:45:37;100993.31;;;1.73;100.00
54042;BME280;41156;51.508;5.406;2022-11-20T09:49:02;100993.72;;;1.78;100.00
54042;BME280;41156;51.508;5.406;2022-11-20T09:55:14;100985.81;;;1.87;100.00
54042;BME280;41156;51.508;5.406;2022-11-20T09:58:37;100988.28;;;1.88;100.00
54042;BME280;41156;51.508;5.406;2022-11-20T10:01:40;100986.34;;;1.90;100.00
54042;BME280;41156;51.508;5.406;2022-11-20T10:04:56;100973.22;;;1.97;100.00
54042;BME280;41156;51.508;5.406;2022-11-20T10:08:21;100974.13;;;2.06;100.00
54042;BME280;41156;51.508;5.406;2022-11-20T10:11:33;100964.44;;;2.04;100.00
54042;BME280;41156;51.508;5.406;2022-11-20T10:14:56;100947.47;;;2.06;100.00
54042;BME280;41156;51.508;5.406;2022-11-20T10:31:02;100921.31;;;2.35;100.00
54042;BME280;41156;51.508;5.406;2022-11-20T10:34:11;100908.31;;;2.40;100.00
54042;BME280;41156;51.508;5.406;2022-11-20T10:37:16;100904.16;;;2.46;100.00
54042;BME280;41156;51.508;5.406;2022-11-20T10:40:40;100891.53;;;2.48;100.00
54042;BME280;41156;51.508;5.406;2022-11-20T10:43:41;100882.03;;;2.54;100.00
54042;BME280;41156;51.508;5.406;2022-11-20T10:46:45;100880.84;;;2.56;100.00
54042;BME280;41156;51.508;5.406;2022-11-20T10:49:57;100878.88;;;2.58;100.00
54042;BME280;41156;51.508;5.406;2022-11-20T10:53:19;100874.25;;;2.69;100.00
54042;BME280;41156;51.508;5.406;2022-11-20T10:56:41;100866.25;;;2.77;100.00
54042;BME280;41156;51.508;5.406;2022-11-20T11:02:57;100849.44;;;2.76;100.00
54042;BME280;41156;51.508;5.406;2022-11-20T11:06:29;100849.44;;;2.76;100.00
54042;BME280;41156;51.508;5.406;2022-11-20T11:09:37;100845.91;;;2.84;100.00
54042;BME280;41156;51.508;5.406;2022-11-20T11:12:43;100850.94;;;2.87;100.00
54042;BME280;41156;51.508;5.406;2022-11-20T11:15:45;100827.75;;;2.88;100.00
54042;BME280;41156;51.508;5.406;2022-11-20T11:18:46;100839.63;;;2.93;100.00
54042;BME280;41156;51.508;5.406;2022-11-20T11:21:54;100842.28;;;2.93;100.00
54042;BME280;41156;51.508;5.406;2022-11-20T11:24:56;100848.28;;;2.95;100.00
54042;BME280;41156;51.508;5.406;2022-11-20T11:28:18;100840.44;;;2.94;100.00
54042;BME280;41156;51.508;5.406;2022-11-20T11:31:27;100838.59;;;2.94;100.00
54042;BME280;41156;51.508;5.406;2022-11-20T11:34:27;100827.09;;;2.94;100.00
54042;BME280;41156;51.508;5.406;2022-11-20T11:37:33;100820.94;;;2.93;100.00
54042;BME280;41156;51.508;5.406;2022-11-20T11:40:35;100821.59;;;2.95;100.00
54042;BME280;41156;51.508;5.406;2022-11-20T11:43:38;100818.59;;;2.99;100.00
54042;BME280;41156;51.508;5.406;2022-11-20T11:46:57;100812.41;;;2.98;100.00
54042;BME280;41156;51.508;5.406;2022-11-20T11:53:15;100793.91;;;2.96;100.00
54042;BME280;41156;51.508;5.406;2022-11-20T11:56:16;100793.38;;;3.01;100.00
54042;BME280;41156;51.508;5.406;2022-11-20T11:59:59;100787.88;;;3.11;100.00
54042;BME280;41156;51.508;5.406;2022-11-20T12:03:02;100785.53;;;3.16;100.00
54042;BME280;41156;51.508;5.406;2022-11-20T12:06:14;100771.84;;;3.19;100.00
54042;BME280;41156;51.508;5.406;2022-11-20T12:09:18;100763.50;;;3.22;100.00
54042;BME280;41156;51.508;5.406;2022-11-20T12:12:24;100734.13;;;3.22;100.00
54042;BME280;41156;51.508;5.406;2022-11-20T12:15:34;100728.78;;;3.22;100.00
54042;BME280;41156;51.508;5.406;2022-11-20T12:18:34;100722.97;;;3.27;100.00
54042;BME280;41156;51.508;5.406;2022-11-20T12:24:46;100713.56;;;3.39;100.00
54042;BME280;41156;51.508;5.406;2022-11-20T12:28:18;100705.38;;;3.49;100.00
54042;BME280;41156;51.508;5.406;2022-11-20T12:34:39;100694.47;;;3.59;100.00
54042;BME280;41156;51.508;5.406;2022-11-20T12:41:17;100685.09;;;3.63;100.00
54042;BME280;41156;51.508;5.406;2022-11-20T12:45:09;100682.72;;;3.68;100.00
54042;BME280;41156;51.508;5.406;2022-11-20T12:58:21;100639.03;;;3.92;100.00
54042;BME280;41156;51.508;5.406;2022-11-20T13:01:45;100631.44;;;4.04;100.00
54042;BME280;41156;51.508;5.406;2022-11-20T13:08:08;100616.63;;;4.16;100.00
54042;BME280;41156;51.508;5.406;2022-11-20T13:12:08;100604.41;;;4.22;100.00
54042;BME280;41156;51.508;5.406;2022-11-20T13:18:31;100602.66;;;4.29;100.00
54042;BME280;41156;51.508;5.406;2022-11-20T13:21:46;100596.66;;;4.27;100.00
54042;BME280;41156;51.508;5.406;2022-11-20T13:24:52;100580.63;;;4.27;100.00
54042;BME280;41156;51.508;5.406;2022-11-20T13:27:54;100583.47;;;4.25;100.00
54042;BME280;41156;51.508;5.406;2022-11-20T13:30:56;100569.28;;;4.25;100.00
54042;BME280;41156;51.508;5.406;2022-11-20T13:33:59;100566.25;;;4.28;100.00
54042;BME280;41156;51.508;5.406;2022-11-20T13:37:00;100559.88;;;4.29;100.00
54042;BME280;41156;51.508;5.406;2022-11-20T13:43:20;100551.13;;;4.35;100.00
54042;BME280;41156;51.508;5.406;2022-11-20T13:46:21;100536.34;;;4.39;100.00
54042;BME280;41156;51.508;5.406;2022-11-20T13:49:33;100537.56;;;4.37;100.00
54042;BME280;41156;51.508;5.406;2022-11-20T13:52:55;100534.19;;;4.43;100.00
54042;BME280;41156;51.508;5.406;2022-11-20T13:56:04;100531.50;;;4.43;100.00
54042;BME280;41156;51.508;5.406;2022-11-20T13:59:14;100520.22;;;4.48;100.00
54042;BME280;41156;51.508;5.406;2022-11-20T14:02:23;100524.22;;;4.52;100.00
54042;BME280;41156;51.508;5.406;2022-11-20T14:05:25;100506.13;;;4.54;100.00
54042;BME280;41156;51.508;5.406;2022-11-20T14:08:31;100507.13;;;4.53;100.00
54042;BME280;41156;51.508;5.406;2022-11-20T14:11:35;100505.13;;;4.55;100.00
54042;BME280;41156;51.508;5.406;2022-11-20T14:14:35;100492.75;;;4.54;100.00
54042;BME280;41156;51.508;5.406;2022-11-20T14:17:37;100486.38;;;4.55;100.00
54042;BME280;41156;51.508;5.406;2022-11-20T14:20:38;100483.31;;;4.58;100.00
54042;BME280;41156;51.508;5.406;2022-11-20T14:23:39;100468.31;;;4.57;100.00
54042;BME280;41156;51.508;5.406;2022-11-20T14:26:44;100480.19;;;4.54;100.00
54042;BME280;41156;51.508;5.406;2022-11-20T14:29:46;100480.00;;;4.56;100.00
54042;BME280;41156;51.508;5.406;2022-11-20T14:32:48;100474.00;;;4.54;100.00
54042;BME280;41156;51.508;5.406;2022-11-20T14:35:56;100477.88;;;4.51;100.00
54042;BME280;41156;51.508;5.406;2022-11-20T14:38:57;100469.22;;;4.49;100.00
54042;BME280;41156;51.508;5.406;2022-11-20T14:41:57;100461.53;;;4.46;100.00
54042;BME280;41156;51.508;5.406;2022-11-20T14:44:59;100455.75;;;4.42;100.00
54042;BME280;41156;51.508;5.406;2022-11-20T14:48:00;100448.75;;;4.41;100.00
54042;BME280;41156;51.508;5.406;2022-11-20T14:51:00;100443.41;;;4.41;100.00
54042;BME280;41156;51.508;5.406;2022-11-20T14:54:14;100429.34;;;4.39;100.00
54042;BME280;41156;51.508;5.406;2022-11-20T14:57:38;100418.00;;;4.37;100.00
54042;BME280;41156;51.508;5.406;2022-11-20T15:00:38;100411.19;;;4.35;100.00
54042;BME280;41156;51.508;5.406;2022-11-20T15:03:40;100393.94;;;4.37;100.00
54042;BME280;41156;51.508;5.406;2022-11-20T15:06:50;100380.56;;;4.37;100.00
54042;BME280;41156;51.508;5.406;2022-11-20T15:10:09;100377.69;;;4.39;100.00
54042;BME280;41156;51.508;5.406;2022-11-20T15:13:13;100374.03;;;4.40;100.00
54042;BME280;41156;51.508;5.406;2022-11-20T15:16:18;100372.97;;;4.41;100.00
54042;BME280;41156;51.508;5.406;2022-11-20T15:19:24;100363.94;;;4.42;100.00
54042;BME280;41156;51.508;5.406;2022-11-20T15:22:25;100360.28;;;4.43;100.00
54042;BME280;41156;51.508;5.406;2022-11-20T15:25:25;100348.72;;;4.42;100.00
54042;BME280;41156;51.508;5.406;2022-11-20T15:29:02;100348.53;;;4.44;100.00
54042;BME280;41156;51.508;5.406;2022-11-20T15:31:55;100339.69;;;4.43;100.00
54042;BME280;41156;51.508;5.406;2022-11-20T15:34:56;100340.31;;;4.45;100.00
54042;BME280;41156;51.508;5.406;2022-11-20T15:37:56;100326.94;;;4.45;100.00
54042;BME280;41156;51.508;5.406;2022-11-20T15:40:57;100324.91;;;4.48;100.00
54042;BME280;41156;51.508;5.406;2022-11-20T15:43:57;100308.84;;;4.48;100.00
54042;BME280;41156;51.508;5.406;2022-11-20T15:46:58;100301.50;;;4.50;100.00
54042;BME280;41156;51.508;5.406;2022-11-20T15:49:58;100298.41;;;4.53;100.00
54042;BME280;41156;51.508;5.406;2022-11-20T15:52:59;100294.53;;;4.55;100.00
54042;BME280;41156;51.508;5.406;2022-11-20T15:55:59;100280.97;;;4.57;100.00
54042;BME280;41156;51.508;5.406;2022-11-20T15:58:59;100280.78;;;4.58;100.00
54042;BME280;41156;51.508;5.406;2022-11-20T16:01:59;100279.38;;;4.62;100.00
54042;BME280;41156;51.508;5.406;2022-11-20T16:05:00;100275.50;;;4.65;100.00
54042;BME280;41156;51.508;5.406;2022-11-20T16:08:00;100266.25;;;4.68;100.00
54042;BME280;41156;51.508;5.406;2022-11-20T16:11:02;100268.75;;;4.69;100.00
54042;BME280;41156;51.508;5.406;2022-11-20T16:14:03;100263.00;;;4.72;100.00
54042;BME280;41156;51.508;5.406;2022-11-20T16:17:22;100256.47;;;4.75;100.00
54042;BME280;41156;51.508;5.406;2022-11-20T16:20:43;100255.06;;;4.79;100.00
54042;BME280;41156;51.508;5.406;2022-11-20T16:23:43;100245.81;;;4.81;100.00
54042;BME280;41156;51.508;5.406;2022-11-20T16:26:43;100252.44;;;4.86;100.00
54042;BME280;41156;51.508;5.406;2022-11-20T16:29:44;100243.00;;;4.90;100.00
54042;BME280;41156;51.508;5.406;2022-11-20T16:32:44;100239.72;;;4.94;100.00
54042;BME280;41156;51.508;5.406;2022-11-20T16:35:44;100235.66;;;4.98;100.00
54042;BME280;41156;51.508;5.406;2022-11-20T16:38:45;100235.28;;;5.02;100.00
54042;BME280;41156;51.508;5.406;2022-11-20T16:41:45;100226.88;;;5.05;100.00
54042;BME280;41156;51.508;5.406;2022-11-20T16:44:45;100232.66;;;5.08;100.00
54042;BME280;41156;51.508;5.406;2022-11-20T16:47:46;100226.06;;;5.11;100.00
54042;BME280;41156;51.508;5.406;2022-11-20T16:50:51;100214.97;;;5.14;100.00
54042;BME280;41156;51.508;5.406;2022-11-20T16:53:52;100204.69;;;5.17;100.00